createdAt,value
2023-06-25T00:00:23.548Z,2.00
2023-06-25T00:02:55.357Z,3.20
2023-06-25T00:05:27.675Z,2.00
2023-06-25T00:08:04.333Z,2.60
2023-06-25T00:10:37.557Z,1.50
2023-06-25T00:13:12.225Z,1.50
2023-06-25T00:15:41.738Z,1.70
2023-06-25T00:18:13.694Z,2.20
2023-06-25T00:20:43.059Z,1.90
2023-06-25T00:23:12.340Z,2.50
2023-06-25T00:25:44.575Z,2.20
2023-06-25T00:28:19.011Z,2.80
2023-06-25T00:30:51.278Z,2.60
2023-06-25T00:33:24.022Z,2.10
2023-06-25T00:35:53.391Z,1.70
2023-06-25T00:38:32.322Z,1.90
2023-06-25T00:41:01.610Z,2.10
2023-06-25T00:43:35.552Z,1.80
2023-06-25T00:46:05.225Z,2.10
2023-06-25T00:48:34.831Z,2.20
2023-06-25T00:51:04.247Z,2.30
2023-06-25T00:53:43.650Z,2.30
2023-06-25T00:56:16.463Z,2.30
2023-06-25T00:59:31.783Z,2.70
2023-06-25T01:03:14.361Z,2.40
2023-06-25T01:06:13.053Z,2.80
2023-06-25T01:08:56.224Z,3.00
2023-06-25T01:11:25.840Z,2.60
2023-06-25T01:13:57.530Z,3.40
2023-06-25T01:16:27.771Z,2.90
2023-06-25T01:19:05.071Z,2.40
2023-06-25T01:21:37.513Z,2.80
2023-06-25T01:24:07.361Z,3.10
2023-06-25T01:26:36.742Z,3.00
2023-06-25T01:29:06.340Z,2.70
2023-06-25T01:31:35.578Z,2.90
2023-06-25T01:34:07.253Z,2.70
2023-06-25T01:36:42.646Z,3.20
2023-06-25T01:39:12.117Z,3.40
2023-06-25T01:41:41.541Z,3.10
2023-06-25T01:44:21.577Z,3.60
2023-06-25T01:46:51.262Z,3.00
2023-06-25T01:49:30.949Z,3.50
2023-06-25T01:52:08.526Z,3.40
2023-06-25T01:54:53.278Z,3.70
2023-06-25T01:57:25.149Z,2.60
2023-06-25T01:59:57.372Z,2.80
2023-06-25T02:02:26.967Z,3.50
2023-06-25T02:04:59.022Z,3.10
2023-06-25T02:07:28.479Z,3.10
2023-06-25T02:10:00.942Z,3.20
2023-06-25T02:12:32.205Z,2.90
2023-06-25T02:15:01.606Z,2.60
2023-06-25T02:17:31.033Z,2.80
2023-06-25T02:20:00.761Z,2.50
2023-06-25T02:22:30.327Z,2.10
2023-06-25T02:25:03.049Z,1.90
2023-06-25T02:27:35.552Z,1.90
2023-06-25T02:30:12.491Z,1.90
2023-06-25T02:32:41.974Z,1.70
2023-06-25T02:35:14.042Z,2.20
2023-06-25T02:37:49.654Z,2.00
2023-06-25T02:40:18.870Z,1.60
2023-06-25T02:42:48.274Z,1.70
2023-06-25T02:45:19.794Z,1.40
2023-06-25T02:47:52.259Z,1.60
2023-06-25T02:50:21.668Z,1.60
2023-06-25T02:52:51.412Z,1.60
2023-06-25T02:55:23.969Z,1.70
2023-06-25T02:57:58.243Z,2.20
2023-06-25T03:00:27.537Z,1.70
2023-06-25T03:02:57.268Z,1.60
2023-06-25T03:05:26.987Z,2.10
2023-06-25T03:08:00.668Z,1.70
2023-06-25T03:10:37.933Z,1.60
2023-06-25T03:13:11.410Z,3.00
2023-06-25T03:15:41.039Z,2.20
2023-06-25T03:18:18.497Z,2.40
2023-06-25T03:20:50.158Z,2.60
2023-06-25T03:23:21.995Z,2.00
2023-06-25T03:26:05.503Z,1.70
2023-06-25T03:31:33.885Z,2.30
2023-06-25T03:34:03.963Z,2.80
2023-06-25T03:36:38.716Z,2.60
2023-06-25T03:39:28.065Z,2.70
2023-06-25T03:42:04.982Z,3.70
2023-06-25T03:44:37.434Z,2.80
2023-06-25T03:47:17.975Z,2.20
2023-06-25T03:49:53.757Z,2.50
2023-06-25T03:52:37.239Z,3.80
2023-06-25T03:55:53.320Z,1.80
2023-06-25T03:58:37.815Z,1.70
2023-06-25T04:01:15.568Z,2.60
2023-06-25T04:03:54.573Z,1.90
2023-06-25T04:06:24.768Z,1.80
2023-06-25T04:08:54.325Z,1.90
2023-06-25T04:11:26.863Z,2.20
2023-06-25T04:13:56.010Z,2.70
2023-06-25T04:16:49.753Z,2.50
2023-06-25T04:19:22.066Z,1.80
2023-06-25T04:21:53.528Z,2.10
2023-06-25T04:24:22.800Z,2.40
2023-06-25T04:27:01.390Z,2.00
2023-06-25T04:29:30.962Z,2.00
2023-06-25T04:32:00.402Z,2.00
2023-06-25T04:34:29.997Z,2.00
2023-06-25T04:36:59.674Z,2.00
2023-06-25T04:39:29.162Z,2.40
2023-06-25T04:42:05.873Z,1.90
2023-06-25T04:44:35.354Z,1.70
2023-06-25T04:47:05.135Z,1.70
2023-06-25T04:49:35.128Z,2.00
2023-06-25T04:52:04.698Z,2.10
2023-06-25T04:54:34.274Z,2.00
2023-06-25T04:57:03.651Z,2.00
2023-06-25T04:59:33.163Z,1.80
2023-06-25T05:02:04.977Z,2.10
2023-06-25T05:04:39.859Z,3.10
2023-06-25T05:07:18.069Z,2.30
2023-06-25T05:09:49.631Z,2.10
2023-06-25T05:12:22.055Z,1.70
2023-06-25T05:14:51.481Z,1.90
2023-06-25T05:17:21.026Z,2.00
2023-06-25T05:19:53.680Z,1.90
2023-06-25T05:22:25.207Z,2.20
2023-06-25T05:25:09.277Z,1.80
2023-06-25T05:27:44.753Z,2.40
2023-06-25T05:30:18.423Z,2.00
2023-06-25T05:32:50.117Z,2.10
2023-06-25T05:35:19.600Z,1.90
2023-06-25T05:37:51.976Z,1.70
2023-06-25T05:40:24.799Z,2.40
2023-06-25T05:42:56.753Z,2.10
2023-06-25T05:45:28.381Z,1.90
2023-06-25T05:47:57.985Z,1.90
2023-06-25T05:50:33.180Z,2.20
2023-06-25T05:53:02.723Z,2.10
2023-06-25T05:55:33.941Z,1.90
2023-06-25T05:58:08.942Z,2.00
2023-06-25T06:00:49.096Z,2.20
2023-06-25T06:03:21.994Z,2.40
2023-06-25T06:05:51.778Z,2.00
2023-06-25T06:08:21.467Z,2.10
2023-06-25T06:10:53.742Z,1.90
2023-06-25T06:13:25.971Z,2.20
2023-06-25T06:15:55.590Z,1.90
2023-06-25T06:18:25.384Z,2.30
2023-06-25T06:20:54.847Z,2.20
2023-06-25T06:23:24.156Z,2.10
2023-06-25T06:25:56.214Z,2.10
2023-06-25T06:28:28.387Z,1.90
2023-06-25T06:30:57.902Z,1.60
2023-06-25T06:33:27.298Z,2.10
2023-06-25T06:36:02.281Z,2.10
2023-06-25T06:38:31.687Z,2.10
2023-06-25T06:41:06.866Z,2.00
2023-06-25T06:43:36.340Z,2.10
2023-06-25T06:46:10.335Z,2.60
2023-06-25T06:48:47.230Z,2.30
2023-06-25T06:51:16.643Z,2.60
2023-06-25T06:53:55.142Z,2.40
2023-06-25T06:56:24.710Z,2.30
2023-06-25T06:59:03.569Z,2.20
2023-06-25T07:01:33.090Z,2.10
2023-06-25T07:04:02.564Z,2.00
2023-06-25T07:06:32.081Z,2.30
2023-06-25T07:09:08.922Z,1.90
2023-06-25T07:11:38.354Z,2.30
2023-06-25T07:14:15.349Z,2.30
2023-06-25T07:16:48.366Z,2.20
2023-06-25T07:19:17.835Z,2.00
2023-06-25T07:21:50.179Z,2.10
2023-06-25T07:24:22.321Z,2.00
2023-06-25T07:26:54.443Z,2.40
2023-06-25T07:29:28.689Z,2.30
2023-06-25T07:32:00.913Z,2.00
2023-06-25T07:34:30.322Z,2.90
2023-06-25T07:37:02.337Z,2.20
2023-06-25T07:39:33.366Z,2.10
2023-06-25T07:42:03.738Z,2.40
2023-06-25T07:44:50.421Z,2.20
2023-06-25T07:47:33.793Z,2.50
2023-06-25T07:50:06.606Z,2.50
2023-06-25T07:52:49.856Z,2.50
2023-06-25T07:55:19.526Z,2.20
2023-06-25T07:57:54.026Z,2.30
2023-06-25T08:00:23.465Z,2.60
2023-06-25T08:02:52.890Z,2.30
2023-06-25T08:05:24.917Z,2.10
2023-06-25T08:08:01.493Z,2.40
2023-06-25T08:10:31.002Z,2.20
2023-06-25T08:13:00.514Z,2.70
2023-06-25T08:15:32.332Z,2.40
2023-06-25T08:18:04.341Z,2.40
2023-06-25T08:20:38.801Z,2.50
2023-06-25T08:23:11.234Z,2.20
2023-06-25T08:25:52.132Z,2.40
2023-06-25T08:28:21.593Z,2.20
2023-06-25T08:30:51.108Z,2.50
2023-06-25T08:33:23.290Z,2.20
2023-06-25T08:35:53.087Z,2.40
2023-06-25T08:38:24.097Z,2.60
2023-06-25T08:40:58.941Z,2.40
2023-06-25T08:43:34.275Z,2.70
2023-06-25T08:46:05.206Z,2.70
2023-06-25T08:48:38.515Z,2.60
2023-06-25T08:51:24.327Z,2.50
2023-06-25T08:54:00.442Z,2.80
2023-06-25T08:56:33.840Z,2.70
2023-06-25T08:59:05.503Z,2.40
2023-06-25T09:01:34.939Z,2.00
2023-06-25T09:04:04.175Z,2.30
2023-06-25T09:06:58.398Z,2.20
2023-06-25T09:09:34.259Z,2.40
2023-06-25T09:12:04.114Z,2.70
2023-06-25T09:14:35.462Z,2.30
2023-06-25T09:17:06.327Z,2.20
2023-06-25T09:19:35.679Z,2.50
2023-06-25T09:22:05.023Z,2.30
2023-06-25T09:24:34.557Z,2.40
2023-06-25T09:27:06.505Z,3.00
2023-06-25T09:29:40.121Z,2.70
2023-06-25T09:32:19.458Z,2.70
2023-06-25T09:34:55.046Z,2.70
2023-06-25T09:37:27.670Z,2.90
2023-06-25T09:40:00.533Z,2.70
2023-06-25T09:42:30.668Z,2.50
2023-06-25T09:45:06.237Z,2.80
2023-06-25T09:47:35.863Z,2.80
2023-06-25T09:50:14.557Z,2.60
2023-06-25T09:52:57.488Z,2.40
2023-06-25T09:55:31.556Z,2.60
2023-06-25T09:58:05.613Z,2.70
2023-06-25T10:00:36.803Z,2.30
2023-06-25T10:03:07.293Z,2.50
2023-06-25T10:05:41.186Z,2.50
2023-06-25T10:08:11.626Z,2.60
2023-06-25T10:10:44.243Z,2.80
2023-06-25T10:13:16.246Z,2.80
2023-06-25T10:15:50.354Z,2.70
2023-06-25T10:18:26.676Z,2.70
2023-06-25T10:21:01.344Z,2.90
2023-06-25T10:23:32.690Z,2.70
2023-06-25T10:26:03.790Z,2.90
2023-06-25T10:28:44.703Z,3.10
2023-06-25T10:31:21.203Z,2.60
2023-06-25T10:33:53.077Z,2.80
2023-06-25T10:36:28.099Z,2.70
2023-06-25T10:39:00.659Z,2.70
2023-06-25T10:41:38.052Z,2.50
2023-06-25T10:44:07.454Z,2.80
2023-06-25T10:46:37.432Z,2.80
2023-06-25T10:49:18.587Z,3.00
2023-06-25T10:51:48.357Z,2.30
2023-06-25T10:54:18.406Z,2.50
2023-06-25T10:56:49.479Z,2.60
2023-06-25T10:59:27.789Z,2.80
2023-06-25T11:01:57.183Z,2.60
2023-06-25T11:04:28.054Z,2.50
2023-06-25T11:06:59.497Z,2.40
2023-06-25T11:09:41.370Z,2.80
2023-06-25T11:12:11.241Z,2.60
2023-06-25T11:14:40.626Z,2.40
2023-06-25T11:17:12.952Z,2.50
2023-06-25T11:19:46.687Z,2.60
2023-06-25T11:22:19.486Z,2.70
2023-06-25T11:24:58.244Z,2.60
2023-06-25T11:27:31.291Z,2.60
2023-06-25T11:30:00.844Z,2.60
2023-06-25T11:32:32.741Z,2.40
2023-06-25T11:35:02.882Z,2.70
2023-06-25T11:37:34.139Z,2.80
2023-06-25T11:40:06.291Z,2.50
2023-06-25T11:42:43.631Z,2.60
2023-06-25T11:45:13.737Z,2.60
2023-06-25T11:47:56.230Z,2.40
2023-06-25T11:50:27.454Z,2.60
2023-06-25T11:52:58.781Z,3.10
2023-06-25T11:55:31.414Z,2.40
2023-06-25T11:58:01.101Z,2.30
2023-06-25T12:00:33.280Z,2.80
2023-06-25T12:03:02.852Z,2.50
2023-06-25T12:05:35.525Z,2.50
2023-06-25T12:08:05.705Z,2.40
2023-06-25T12:10:37.779Z,2.80
2023-06-25T12:13:07.286Z,2.40
2023-06-25T12:15:39.645Z,2.70
2023-06-25T12:18:09.380Z,2.80
2023-06-25T12:20:38.759Z,2.80
2023-06-25T12:23:08.475Z,2.90
2023-06-25T12:25:38.796Z,2.80
2023-06-25T12:28:14.865Z,2.50
2023-06-25T12:30:44.347Z,2.90
2023-06-25T12:33:13.661Z,2.80
2023-06-25T12:35:42.949Z,3.20
2023-06-25T12:38:14.784Z,3.00
2023-06-25T12:40:48.551Z,2.70
2023-06-25T12:43:18.456Z,2.70
2023-06-25T12:45:51.045Z,3.10
2023-06-25T12:48:20.964Z,2.90
2023-06-25T12:50:53.300Z,2.90
2023-06-25T12:53:22.562Z,2.80
2023-06-25T12:55:52.042Z,2.70
2023-06-25T12:58:25.360Z,2.80
2023-06-25T13:01:06.423Z,3.30
2023-06-25T13:03:39.949Z,2.70
2023-06-25T13:06:14.583Z,2.80
2023-06-25T13:08:50.119Z,3.00
2023-06-25T13:11:19.829Z,2.90
2023-06-25T13:13:49.221Z,2.90
2023-06-25T13:16:18.661Z,2.90
2023-06-25T13:18:48.030Z,3.20
2023-06-25T13:21:18.548Z,3.10
2023-06-25T13:23:47.723Z,3.00
2023-06-25T13:26:17.469Z,2.80
2023-06-25T13:28:47.019Z,3.10
2023-06-25T13:31:16.525Z,3.20
2023-06-25T13:33:46.212Z,2.90
2023-06-25T13:36:17.910Z,2.90
2023-06-25T13:38:50.153Z,2.80
2023-06-25T13:41:19.464Z,3.10
2023-06-25T13:43:49.884Z,3.00
2023-06-25T13:46:20.369Z,3.50
2023-06-25T13:48:49.752Z,3.10
2023-06-25T13:51:19.005Z,3.60
2023-06-25T13:53:52.926Z,3.20
2023-06-25T13:56:35.451Z,3.60
2023-06-25T13:59:38.618Z,3.60
2023-06-25T14:02:44.593Z,3.40
2023-06-25T14:05:56.885Z,3.30
2023-06-25T14:15:26.992Z,4.00
2023-06-25T14:17:59.492Z,3.70
2023-06-25T14:20:29.196Z,4.50
2023-06-25T14:23:03.250Z,4.50
2023-06-25T14:25:36.817Z,3.70
2023-06-25T14:28:06.973Z,3.90
2023-06-25T14:38:09.739Z,3.90
2023-06-25T14:38:31.157Z,3.90
2023-06-25T14:41:10.173Z,4.40
2023-06-25T14:44:01.566Z,4.00
2023-06-25T14:46:38.570Z,4.00
2023-06-25T14:49:07.801Z,4.20
2023-06-25T14:51:37.374Z,3.90
2023-06-25T14:54:06.822Z,3.90
2023-06-25T14:56:36.097Z,4.00
2023-06-25T14:59:05.541Z,3.80
2023-06-25T15:01:40.725Z,4.10
2023-06-25T15:04:12.424Z,4.00
2023-06-25T15:06:45.861Z,4.60
2023-06-25T15:09:18.649Z,4.10
2023-06-25T15:11:48.116Z,4.30
2023-06-25T15:14:29.002Z,4.10
2023-06-25T15:16:58.402Z,5.10
2023-06-25T15:19:28.425Z,4.70
2023-06-25T15:21:57.799Z,4.30
2023-06-25T15:24:27.103Z,3.80
2023-06-25T15:26:56.542Z,4.30
2023-06-25T15:29:26.667Z,4.60
2023-06-25T15:31:56.209Z,4.30
2023-06-25T15:34:29.754Z,4.40
2023-06-25T15:36:59.329Z,3.90
2023-06-25T15:39:28.807Z,4.30
2023-06-25T15:41:58.749Z,4.00
2023-06-25T15:44:28.189Z,3.90
2023-06-25T15:46:57.856Z,4.30
2023-06-25T15:49:27.392Z,4.40
2023-06-25T15:51:56.814Z,4.30
2023-06-25T15:54:26.808Z,4.30
2023-06-25T15:56:59.208Z,4.50
2023-06-25T15:59:36.392Z,4.50
2023-06-25T16:02:06.168Z,4.50
2023-06-25T16:04:44.241Z,4.40
2023-06-25T16:07:13.805Z,4.50
2023-06-25T16:09:43.176Z,3.90
2023-06-25T16:12:12.767Z,4.70
2023-06-25T16:14:42.197Z,4.40
2023-06-25T16:17:15.774Z,4.20
2023-06-25T16:22:17.434Z,4.50
2023-06-25T16:24:48.830Z,5.10
2023-06-25T16:27:18.167Z,4.10
2023-06-25T16:29:50.649Z,4.40
2023-06-25T16:32:20.072Z,4.70
2023-06-25T16:34:49.612Z,5.40
2023-06-25T16:37:19.905Z,4.90
2023-06-25T16:39:49.203Z,4.50
2023-06-25T16:42:18.561Z,4.50
2023-06-25T16:44:48.938Z,4.20
2023-06-25T16:47:18.386Z,4.70
2023-06-25T16:49:50.371Z,4.30
2023-06-25T16:52:22.260Z,4.30
2023-06-25T16:54:54.596Z,4.10
2023-06-25T16:57:26.286Z,4.50
2023-06-25T17:00:00.878Z,4.20
2023-06-25T17:02:33.116Z,4.20
2023-06-25T17:05:02.650Z,4.60
2023-06-25T17:07:32.109Z,4.10
2023-06-25T17:10:01.445Z,4.20
2023-06-25T17:12:33.849Z,4.50
2023-06-25T17:15:15.479Z,4.80
2023-06-25T17:17:53.628Z,4.80
2023-06-25T17:20:42.031Z,4.50
2023-06-25T17:23:23.137Z,3.80
2023-06-25T17:28:48.185Z,3.50
2023-06-25T17:31:35.791Z,3.80
2023-06-25T17:34:08.395Z,3.60
2023-06-25T17:36:40.268Z,3.40
2023-06-25T17:39:10.283Z,3.80
2023-06-25T17:41:39.850Z,4.20
2023-06-25T17:44:11.678Z,4.30
2023-06-25T17:46:45.797Z,3.70
2023-06-25T17:49:17.599Z,3.90
2023-06-25T17:51:47.128Z,3.90
2023-06-25T17:54:16.529Z,3.60
2023-06-25T17:56:46.672Z,3.80
2023-06-25T17:59:21.016Z,3.40
2023-06-25T18:01:57.445Z,4.20
2023-06-25T18:04:29.092Z,3.40
2023-06-25T18:07:00.334Z,3.80
2023-06-25T18:09:30.022Z,3.10
2023-06-25T18:12:02.276Z,3.50
2023-06-25T18:14:31.787Z,3.50
2023-06-25T18:17:01.862Z,4.10
2023-06-25T18:19:32.649Z,4.30
2023-06-25T18:22:02.632Z,4.10
2023-06-25T18:24:31.988Z,4.00
2023-06-25T18:27:01.404Z,4.20
2023-06-25T18:29:30.813Z,4.10
2023-06-25T18:32:02.367Z,4.00
2023-06-25T18:34:39.280Z,3.60
2023-06-25T18:37:08.638Z,4.10
2023-06-25T18:39:44.347Z,4.50
2023-06-25T18:42:13.901Z,3.70
2023-06-25T18:44:43.377Z,4.50
2023-06-25T18:47:18.458Z,3.80
2023-06-25T18:49:47.816Z,3.70
2023-06-25T18:52:18.199Z,3.40
2023-06-25T18:54:50.767Z,3.50
2023-06-25T18:57:20.291Z,3.80
2023-06-25T18:59:49.837Z,3.30
2023-06-25T19:02:19.357Z,3.20
2023-06-25T19:04:48.878Z,3.70
2023-06-25T19:07:18.771Z,3.40
2023-06-25T19:09:51.253Z,3.00
2023-06-25T19:12:20.590Z,3.10
2023-06-25T19:14:50.038Z,3.50
2023-06-25T19:17:22.544Z,3.80
2023-06-25T19:19:54.937Z,3.60
2023-06-25T19:22:24.842Z,3.70
2023-06-25T19:24:54.230Z,3.50
2023-06-25T19:27:57.046Z,3.40
2023-06-25T19:30:24.148Z,3.00
2023-06-25T19:32:56.399Z,3.80
2023-06-25T19:35:26.414Z,3.80
2023-06-25T19:37:57.063Z,3.20
2023-06-25T19:40:26.613Z,3.20
2023-06-25T19:42:58.332Z,3.40
2023-06-25T19:45:33.207Z,3.60
2023-06-25T19:48:02.883Z,3.10
2023-06-25T19:50:32.624Z,3.20
2023-06-25T19:53:01.970Z,3.20
2023-06-25T19:55:31.721Z,3.10
2023-06-25T19:58:01.270Z,3.60
2023-06-25T20:00:30.686Z,3.60
2023-06-25T20:03:00.219Z,3.60
2023-06-25T20:05:29.630Z,3.50
2023-06-25T20:08:01.921Z,3.80
2023-06-25T20:10:32.872Z,3.40
2023-06-25T20:13:02.911Z,3.50
2023-06-25T20:15:32.602Z,3.70
2023-06-25T20:18:02.039Z,3.80
2023-06-25T20:20:33.909Z,3.50
2023-06-25T20:23:03.581Z,3.60
2023-06-25T20:25:33.082Z,3.90
2023-06-25T20:28:02.704Z,3.30
2023-06-25T20:30:32.200Z,3.70
2023-06-25T20:33:04.245Z,3.80
2023-06-25T20:35:37.815Z,3.70
2023-06-25T20:38:17.671Z,3.70
2023-06-25T20:40:47.786Z,3.80
2023-06-25T20:43:18.392Z,3.70
2023-06-25T20:45:50.947Z,3.80
2023-06-25T20:48:20.575Z,3.80
2023-06-25T20:50:50.657Z,4.10
2023-06-25T20:53:24.147Z,3.60
2023-06-25T20:55:53.801Z,3.80
2023-06-25T20:58:23.391Z,3.00
2023-06-25T21:01:02.202Z,3.90
2023-06-25T21:03:31.700Z,3.40
2023-06-25T21:06:01.124Z,3.80
2023-06-25T21:08:30.518Z,3.50
2023-06-25T21:11:02.825Z,3.40
2023-06-25T21:13:32.390Z,3.90
2023-06-25T21:16:01.739Z,3.90
2023-06-25T21:18:33.739Z,3.80
2023-06-25T21:21:03.401Z,3.70
2023-06-25T21:23:32.836Z,3.70
2023-06-25T21:26:02.091Z,3.60
2023-06-25T21:28:31.375Z,3.70
2023-06-25T21:31:03.283Z,3.90
2023-06-25T21:33:32.541Z,3.80
2023-06-25T21:36:01.807Z,3.50
2023-06-25T21:38:34.218Z,3.60
2023-06-25T21:41:03.510Z,3.70
2023-06-25T21:43:38.235Z,3.60
2023-06-25T21:46:07.809Z,3.30
2023-06-25T21:48:37.350Z,3.20
2023-06-25T21:51:06.822Z,3.10
2023-06-25T21:53:36.751Z,3.00
2023-06-25T21:56:06.497Z,2.80
2023-06-25T21:58:36.084Z,2.90
2023-06-25T22:01:05.623Z,3.00
2023-06-25T22:03:35.105Z,3.00
2023-06-25T22:06:04.676Z,2.80
2023-06-25T22:08:34.290Z,2.60
2023-06-25T22:11:03.995Z,2.50
2023-06-25T22:13:36.650Z,2.40
2023-06-25T22:16:08.715Z,3.10
2023-06-25T22:18:41.149Z,2.80
2023-06-25T22:21:10.697Z,2.80
2023-06-25T22:23:40.634Z,2.70
2023-06-25T22:26:10.314Z,2.40
2023-06-25T22:28:42.481Z,2.70
2023-06-25T22:31:11.769Z,2.60
2023-06-25T22:33:41.258Z,2.40
2023-06-25T22:36:10.738Z,2.80
2023-06-25T22:38:40.437Z,2.80
2023-06-25T22:41:12.255Z,2.70
2023-06-25T22:43:41.698Z,2.80
2023-06-25T22:46:11.372Z,3.00
2023-06-25T22:48:44.411Z,3.00
2023-06-25T22:51:15.065Z,2.80
2023-06-25T22:53:48.328Z,3.50
2023-06-25T22:56:22.586Z,3.20
2023-06-25T22:58:53.593Z,3.20
2023-06-25T23:01:28.765Z,3.30
2023-06-25T23:03:58.243Z,7.60
2023-06-25T23:06:27.779Z,5.30
2023-06-25T23:08:57.164Z,3.70
2023-06-25T23:11:26.717Z,2.80
2023-06-25T23:13:59.113Z,2.80
2023-06-25T23:16:31.292Z,2.40
2023-06-25T23:19:02.812Z,2.60
2023-06-25T23:21:33.618Z,2.80
2023-06-25T23:24:07.625Z,3.20
2023-06-25T23:26:39.912Z,2.60
2023-06-25T23:29:15.000Z,2.80
2023-06-25T23:31:45.689Z,3.20
2023-06-25T23:34:17.953Z,3.10
2023-06-25T23:36:47.352Z,2.80
2023-06-25T23:39:16.912Z,3.10
2023-06-25T23:41:46.383Z,2.50
2023-06-25T23:44:17.378Z,3.10
2023-06-25T23:46:46.652Z,2.90
2023-06-25T23:49:18.362Z,2.60
2023-06-25T23:51:47.807Z,3.20
2023-06-25T23:54:19.629Z,2.60
2023-06-25T23:56:51.174Z,3.20
2023-06-25T23:59:22.891Z,2.70
